Time;durP1;ratioP1;P1;durP2;ratioP2;P2;SDS_P1;SDS_P2;PMS_P1;PMS_P2;Temp;Humidity;BMP_temperature;BMP_pressure;BME280_temperature;BME280_humidity;BME280_pressure;Samples;Min_cycle;Max_cycle;Signal;HPM_P1;HPM_P2
2022/03/02 00:01:59;;;;;;;1.80;1.70;;;;;;;0.44;100.00;102288.88;5043895;28;20049;-81
2022/03/02 00:04:32;;;;;;;1.80;1.70;;;;;;;0.40;100.00;102288.41;5028763;28;20517;-81
2022/03/02 00:07:05;;;;;;;1.88;1.77;;;;;;;0.35;100.00;102288.06;5026358;28;20065;-80
2022/03/02 00:09:33;;;;;;;1.80;1.70;;;;;;;0.36;100.00;102287.06;5024550;28;20053;-81
2022/03/02 00:12:06;;;;;;;2.10;2.00;;;;;;;0.26;100.00;102281.06;5022772;28;20049;-80
2022/03/02 00:14:39;;;;;;;1.90;1.80;;;;;;;0.30;100.00;102293.97;5020032;28;20041;-80
2022/03/02 00:17:14;;;;;;;2.00;1.90;;;;;;;0.27;100.00;102298.81;5024820;28;20045;-81
2022/03/02 00:19:43;;;;;;;2.20;2.10;;;;;;;0.27;100.00;102296.94;5029041;28;20381;-80
2022/03/02 00:22:16;;;;;;;2.10;2.00;;;;;;;0.27;100.00;102298.81;5024691;28;20045;-82
2022/03/02 00:24:50;;;;;;;1.70;1.60;;;;;;;0.26;100.00;102299.81;5035840;28;20389;-82
2022/03/02 00:27:19;;;;;;;2.17;2.08;;;;;;;0.23;100.00;102292.94;5023738;28;20050;-81
2022/03/02 00:29:47;;;;;;;2.05;1.95;;;;;;;0.22;100.00;102307.38;5029295;28;20065;-80
2022/03/02 00:32:22;;;;;;;2.08;1.98;;;;;;;0.18;100.00;102303.34;5030555;28;20050;-80
2022/03/02 00:34:55;;;;;;;1.90;1.80;;;;;;;0.16;100.00;102308.84;5030330;28;20075;-80
2022/03/02 00:37:23;;;;;;;1.92;1.83;;;;;;;0.16;100.00;102300.00;5029641;28;20046;-80
2022/03/02 00:39:51;;;;;;;2.15;2.05;;;;;;;0.15;100.00;102303.66;5034782;28;20049;-80
2022/03/02 00:42:24;;;;;;;1.95;1.85;;;;;;;0.14;100.00;102302.03;5023775;28;20058;-81
2022/03/02 00:44:57;;;;;;;2.00;1.90;;;;;;;0.16;100.00;102302.69;5037198;28;20053;-80
2022/03/02 00:47:33;;;;;;;2.17;2.08;;;;;;;0.19;100.00;102299.66;5033566;28;20042;-80
2022/03/02 00:50:07;;;;;;;2.35;2.25;;;;;;;0.17;100.00;102294.47;5022723;28;20407;-80
2022/03/02 00:52:41;;;;;;;1.92;1.83;;;;;;;0.17;100.00;102282.94;5028204;28;20073;-80
2022/03/02 00:55:15;;;;;;;2.10;2.00;;;;;;;0.19;100.00;102278.22;5023675;28;20382;-80
2022/03/02 00:57:48;;;;;;;2.20;2.10;;;;;;;0.24;100.00;102285.78;5034617;28;20045;-80
2022/03/02 01:00:22;;;;;;;2.22;2.13;;;;;;;0.19;100.00;102285.44;5023471;28;20053;-80
2022/03/02 01:02:56;;;;;;;2.25;2.15;;;;;;;0.13;100.00;102286.97;5029975;28;20504;-80
2022/03/02 01:05:29;;;;;;;2.22;2.13;;;;;;;0.14;100.00;102269.91;5031916;28;20076;-80
2022/03/02 01:08:03;;;;;;;2.28;2.17;;;;;;;0.12;100.00;102275.41;5024724;28;20424;-81
2022/03/02 01:10:36;;;;;;;2.33;2.22;;;;;;;0.15;100.00;102268.88;5027026;28;20489;-80
2022/03/02 01:13:05;;;;;;;2.33;2.22;;;;;;;0.06;100.00;102278.78;5025253;28;20056;-80
2022/03/02 01:15:34;;;;;;;2.33;2.22;;;;;;;0.06;100.00;102278.78;5037681;28;20564;-80
2022/03/02 01:18:03;;;;;;;2.03;1.92;;;;;;;-0.12;100.00;102265.59;5025618;28;20065;-80
2022/03/02 01:20:37;;;;;;;1.52;1.42;;;;;;;-0.04;100.00;102265.56;5027808;28;20056;-80
2022/03/02 01:23:10;;;;;;;1.90;1.80;;;;;;;-0.06;100.00;102262.22;5037941;28;20531;-80
2022/03/02 01:25:39;;;;;;;2.10;2.00;;;;;;;-0.19;100.00;102249.38;5027551;28;20450;-80
2022/03/02 01:28:12;;;;;;;2.10;2.00;;;;;;;-0.22;100.00;102263.09;5025984;28;20564;-80
2022/03/02 01:30:45;;;;;;;2.20;2.10;;;;;;;-0.24;100.00;102259.75;5038287;28;20386;-80
2022/03/02 01:33:14;;;;;;;2.40;2.30;;;;;;;-0.20;100.00;102255.72;5038202;28;20049;-80
2022/03/02 01:35:48;;;;;;;2.72;2.55;;;;;;;-0.15;100.00;102249.88;5028575;28;20053;-80
2022/03/02 01:38:21;;;;;;;2.85;2.65;;;;;;;-0.16;100.00;102250.06;5027330;28;20078;-80
2022/03/02 01:40:54;;;;;;;3.30;3.10;;;;;;;-0.18;100.00;102261.75;5016313;28;20060;-80
2022/03/02 01:43:28;;;;;;;3.15;2.95;;;;;;;-0.17;100.00;102246.53;5024561;28;20076;-79
2022/03/02 01:46:01;;;;;;;3.08;2.88;;;;;;;-0.12;100.00;102246.84;5034429;28;20053;-80
2022/03/02 01:48:36;;;;;;;2.97;2.78;;;;;;;-0.16;100.00;102236.66;5018884;28;20050;-80
2022/03/02 01:51:09;;;;;;;3.25;3.05;;;;;;;-0.18;100.00;102236.81;5021589;28;20037;-80
2022/03/02 01:53:43;;;;;;;3.40;3.20;;;;;;;-0.17;100.00;102246.53;5025181;28;20477;-80
2022/03/02 01:56:17;;;;;;;3.13;2.92;;;;;;;-0.21;100.00;102247.88;5017356;28;20049;-80
2022/03/02 01:58:46;;;;;;;3.13;2.92;;;;;;;-0.19;100.00;102244.03;5024259;28;20057;-80
2022/03/02 02:01:19;;;;;;;3.20;3.00;;;;;;;-0.19;100.00;102240.53;5029327;28;20045;-80
2022/03/02 02:03:55;;;;;;;3.60;3.40;;;;;;;-0.19;100.00;102243.19;5029282;28;20056;-80
2022/03/02 02:06:28;;;;;;;3.40;3.20;;;;;;;-0.20;100.00;102223.59;5030353;28;20395;-81
2022/03/02 02:08:58;;;;;;;3.47;3.28;;;;;;;-0.19;100.00;102237.84;5017408;28;20041;-80
2022/03/02 02:11:32;;;;;;;3.60;3.40;;;;;;;-0.20;100.00;102217.44;5030049;28;20037;-80
2022/03/02 02:14:05;;;;;;;3.63;3.42;;;;;;;-0.13;100.00;102217.59;5020834;28;20057;-80
2022/03/02 02:16:38;;;;;;;3.35;3.15;;;;;;;-0.09;100.00;102213.56;5042585;28;20417;-80
2022/03/02 02:19:13;;;;;;;3.38;3.17;;;;;;;-0.12;100.00;102206.72;5024733;28;20045;-80
2022/03/02 02:21:42;;;;;;;3.75;3.55;;;;;;;-0.13;100.00;102206.88;5029298;28;20405;-80
2022/03/02 02:24:10;;;;;;;3.55;3.35;;;;;;;-0.12;100.00;102206.72;5040107;28;20056;-80
2022/03/02 02:26:44;;;;;;;3.40;3.20;;;;;;;-0.11;100.00;102215.56;5033016;28;20045;-80
2022/03/02 02:29:19;;;;;;;3.50;3.30;;;;;;;-0.13;100.00;102214.91;5037612;28;20041;-80
2022/03/02 02:31:52;;;;;;;3.50;3.30;;;;;;;-0.15;100.00;102220.44;5035091;28;20056;-80
2022/03/02 02:34:26;;;;;;;3.30;3.10;;;;;;;-0.14;100.00;102215.91;5031812;28;20053;-80
2022/03/02 02:37:01;;;;;;;3.35;3.15;;;;;;;-0.16;100.00;102202.72;5031075;28;20116;-81
2022/03/02 02:39:35;;;;;;;3.30;3.10;;;;;;;-0.02;100.00;102206.53;5030501;28;20045;-80
2022/03/02 02:42:10;;;;;;;3.05;2.85;;;;;;;-0.06;100.00;102202.50;5030306;28;20050;-80
2022/03/02 02:44:44;;;;;;;3.10;2.90;;;;;;;-0.08;100.00;102207.22;5030362;28;20049;-80
2022/03/02 02:47:17;;;;;;;3.25;3.05;;;;;;;-0.13;100.00;102196.19;5031759;28;20072;-80
2022/03/02 02:49:51;;;;;;;3.58;3.38;;;;;;;-0.12;100.00;102189.84;5026658;28;20236;-80
2022/03/02 02:52:25;;;;;;;3.70;3.50;;;;;;;-0.09;100.00;102203.69;5023738;28;20054;-80
2022/03/02 02:54:58;;;;;;;3.70;3.50;;;;;;;-0.13;100.00;102198.88;5027599;28;20041;-80
2022/03/02 02:57:32;;;;;;;3.75;3.53;;;;;;;-0.19;100.00;102211.91;5021596;28;20041;-80
2022/03/02 03:00:00;;;;;;;3.47;3.28;;;;;;;-0.20;100.00;102204.06;5033251;28;20033;-80
2022/03/02 03:02:33;;;;;;;3.92;3.63;;;;;;;-0.21;100.00;102199.69;5030282;28;20053;-80
2022/03/02 03:05:01;;;;;;;3.97;3.67;;;;;;;-0.27;100.00;102195.88;5026420;28;20045;-80
2022/03/02 03:07:35;;;;;;;4.25;3.95;;;;;;;-0.23;100.00;102194.53;5028804;28;20048;-80
2022/03/02 03:10:10;;;;;;;3.78;3.55;;;;;;;-0.23;100.00;102193.69;5031381;28;20379;-81
2022/03/02 03:12:45;;;;;;;3.88;3.60;;;;;;;-0.31;100.00;102188.38;5028267;28;20054;-80
2022/03/02 03:15:20;;;;;;;3.83;3.60;;;;;;;-0.30;100.00;102177.50;5040308;28;20045;-80
2022/03/02 03:17:49;;;;;;;3.85;3.60;;;;;;;-0.29;100.00;102183.66;5045689;28;20046;-80
2022/03/02 03:20:19;;;;;;;4.10;3.80;;;;;;;-0.31;100.00;102189.19;5030968;28;20041;-80
2022/03/02 03:22:49;;;;;;;4.40;4.10;;;;;;;-0.40;100.00;102182.19;5029095;28;20042;-80
2022/03/02 03:25:23;;;;;;;4.07;3.78;;;;;;;-0.41;100.00;102173.31;5025497;28;20049;-80
2022/03/02 03:27:52;;;;;;;4.40;4.10;;;;;;;-0.41;100.00;102167.16;5024108;28;20049;-80
2022/03/02 03:30:26;;;;;;;4.38;4.07;;;;;;;-0.41;100.00;102170.66;5032009;28;20045;-80
2022/03/02 03:32:55;;;;;;;4.57;4.28;;;;;;;-0.47;100.00;102163.31;5030892;28;20041;-80
2022/03/02 03:35:25;;;;;;;4.90;4.60;;;;;;;-0.56;100.00;102162.47;5025513;28;20049;-80
2022/03/02 03:37:56;;;;;;;4.22;3.92;;;;;;;-0.52;100.00;102165.66;5031163;28;20041;-80
2022/03/02 03:40:29;;;;;;;4.63;4.32;;;;;;;-0.53;100.00;102166.66;5029156;28;20497;-80
2022/03/02 03:43:02;;;;;;;4.70;4.40;;;;;;;-0.61;100.00;102154.13;5039429;28;20504;-80
2022/03/02 03:45:36;;;;;;;5.65;5.25;;;;;;;-0.56;100.00;102178.53;5029823;28;20048;-80
2022/03/02 03:48:04;;;;;;;4.82;4.53;;;;;;;-0.66;100.00;102155.63;5034224;28;20053;-80
2022/03/02 03:50:39;;;;;;;4.70;4.40;;;;;;;-0.63;100.00;102156.16;5023861;28;20037;-80
2022/03/02 03:53:14;;;;;;;5.28;4.88;;;;;;;-0.61;100.00;102172.84;5031691;28;20045;-80
2022/03/02 03:55:47;;;;;;;5.70;5.30;;;;;;;-0.58;100.00;102163.66;5029962;28;20046;-80
2022/03/02 03:58:15;;;;;;;5.70;5.30;;;;;;;-0.64;100.00;102159.81;5030053;28;20053;-80
2022/03/02 04:00:43;;;;;;;5.35;4.95;;;;;;;-0.67;100.00;102156.66;5029114;28;20052;-80
2022/03/02 04:03:12;;;;;;;5.95;5.55;;;;;;;-0.72;100.00;102160.69;5035131;28;20481;-80
2022/03/02 04:05:45;;;;;;;5.80;5.40;;;;;;;-0.82;100.00;102143.13;5021836;28;20060;-80
2022/03/02 04:08:15;;;;;;;6.22;5.82;;;;;;;-0.84;100.00;102137.97;5029723;28;20053;-80
2022/03/02 04:10:48;;;;;;;6.90;6.40;;;;;;;-0.78;100.00;102152.50;5027416;28;20046;-81
2022/03/02 04:13:21;;;;;;;6.30;5.88;;;;;;;-0.75;100.00;102152.97;5031177;28;20060;-80
2022/03/02 04:15:50;;;;;;;7.55;7.05;;;;;;;-0.75;100.00;102155.63;5033114;28;20057;-81
2022/03/02 04:18:23;;;;;;;7.22;6.72;;;;;;;-0.77;100.00;102156.84;5022049;28;20413;-80
2022/03/02 04:20:56;;;;;;;7.43;6.93;;;;;;;-0.80;100.00;102159.81;5024003;28;20052;-80
2022/03/02 04:23:30;;;;;;;6.90;6.40;;;;;;;-0.85;100.00;102155.00;5030577;28;20053;-80
2022/03/02 04:26:03;;;;;;;7.35;6.85;;;;;;;-0.80;100.00;102159.81;5028810;28;20414;-81
2022/03/02 04:28:32;;;;;;;7.47;6.97;;;;;;;-0.86;100.00;102139.94;5017828;28;20049;-80
2022/03/02 04:31:05;;;;;;;7.97;7.38;;;;;;;-0.79;100.00;102145.47;5029762;28;20050;-80
2022/03/02 04:33:38;;;;;;;7.72;7.20;;;;;;;-0.78;100.00;102147.97;5018538;28;20049;-80
2022/03/02 04:36:07;;;;;;;8.48;7.88;;;;;;;-0.86;100.00;102135.47;5031880;28;20045;-80
2022/03/02 04:38:36;;;;;;;8.30;7.70;;;;;;;-0.80;100.00;102138.44;5023079;28;20132;-80
2022/03/02 04:41:10;;;;;;;8.43;7.82;;;;;;;-0.82;100.00;102133.25;5024677;28;20048;-80
2022/03/02 04:43:45;;;;;;;9.40;8.80;;;;;;;-0.86;100.00;102127.44;5022157;28;20034;-80
2022/03/02 04:46:18;;;;;;;9.38;8.77;;;;;;;-0.84;100.00;102131.75;5023946;28;20060;-81
2022/03/02 04:48:46;;;;;;;9.38;8.77;;;;;;;-0.92;100.00;102122.75;5028345;28;20057;-82
2022/03/02 04:51:20;;;;;;;10.15;9.45;;;;;;;-0.87;100.00;102109.72;5021282;28;20077;-82
2022/03/02 04:53:54;;;;;;;10.18;9.48;;;;;;;-0.85;100.00;102128.25;5029484;28;20033;-82
2022/03/02 04:56:27;;;;;;;10.70;10.00;;;;;;;-0.89;100.00;102110.88;5020326;28;20050;-82
2022/03/02 04:59:03;;;;;;;11.25;10.55;;;;;;;-0.86;100.00;102116.75;5038021;28;20557;-81
2022/03/02 05:01:36;;;;;;;11.40;10.70;;;;;;;-0.90;100.00;102101.19;5032457;28;20041;-81
2022/03/02 05:04:09;;;;;;;11.20;10.50;;;;;;;-0.91;100.00;102124.44;5029400;28;20041;-81
2022/03/02 05:06:37;;;;;;;12.18;11.38;;;;;;;-0.88;100.00;102126.75;5030225;28;20060;-81
2022/03/02 05:09:11;;;;;;;12.85;12.05;;;;;;;-0.90;100.00;102127.91;5032176;28;20062;-81
2022/03/02 05:11:39;;;;;;;13.15;12.35;;;;;;;-0.89;100.00;102133.09;5030409;28;20053;-81
2022/03/02 05:14:07;;;;;;;12.65;11.85;;;;;;;-0.93;100.00;102130.94;5034369;28;20049;-81
2022/03/02 05:16:35;;;;;;;12.30;11.50;;;;;;;-0.95;100.00;102128.44;5022729;28;20045;-81
2022/03/02 05:19:09;;;;;;;13.13;12.32;;;;;;;-1.00;100.00;102116.59;5027551;28;20041;-81
2022/03/02 05:21:42;;;;;;;13.75;12.85;;;;;;;-0.93;100.00;102133.59;5027069;28;20041;-81
2022/03/02 05:24:16;;;;;;;12.63;11.82;;;;;;;-0.90;100.00;102138.63;5024791;28;20046;-80
2022/03/02 05:26:44;;;;;;;14.00;13.10;;;;;;;-0.98;100.00;102127.94;5027210;28;20376;-81
2022/03/02 05:29:17;;;;;;;13.55;12.70;;;;;;;-0.92;100.00;102130.75;5025163;28;20072;-81
2022/03/02 05:31:50;;;;;;;12.20;11.40;;;;;;;-1.03;100.00;102118.56;5031834;28;20045;-81
2022/03/02 05:34:23;;;;;;;12.57;11.77;;;;;;;-0.98;100.00;102130.59;5025997;28;20390;-81
2022/03/02 05:36:57;;;;;;;12.27;11.48;;;;;;;-1.08;100.00;102131.63;5028610;28;20063;-81
2022/03/02 05:39:26;;;;;;;12.35;11.55;;;;;;;-1.08;100.00;102131.63;5023294;28;20049;-81
2022/03/02 05:41:59;;;;;;;13.05;12.25;;;;;;;-1.13;100.00;102128.59;5028918;28;20050;-81
2022/03/02 05:44:32;;;;;;;14.20;13.30;;;;;;;-1.19;100.00;102129.25;5015772;28;20049;-80
2022/03/02 05:47:01;;;;;;;15.32;14.43;;;;;;;-1.27;100.00;102134.59;5024109;28;20049;-81
2022/03/02 05:49:34;;;;;;;14.35;13.45;;;;;;;-1.28;100.00;102127.59;5030092;28;20055;-81
2022/03/02 05:52:03;;;;;;;14.52;13.63;;;;;;;-1.29;100.00;102120.56;5023477;28;20046;-80
2022/03/02 05:54:32;;;;;;;15.43;14.52;;;;;;;-1.31;100.00;102115.41;5031498;28;20056;-80
2022/03/02 05:57:00;;;;;;;15.85;14.85;;;;;;;-1.32;100.00;102111.06;5019154;28;20056;-80
2022/03/02 05:59:33;;;;;;;15.88;14.88;;;;;;;-1.34;100.00;102109.53;5025240;28;20473;-80
2022/03/02 06:02:01;;;;;;;17.08;16.08;;;;;;;-1.45;100.00;102102.69;5033799;28;20053;-81
2022/03/02 06:04:34;;;;;;;16.05;15.05;;;;;;;-1.47;100.00;102102.84;5024324;28;20049;-80
2022/03/02 06:07:08;;;;;;;16.67;15.68;;;;;;;-1.45;100.00;102114.22;5025548;28;20399;-81
2022/03/02 06:09:43;;;;;;;16.15;15.15;;;;;;;-1.46;100.00;102119.72;5021830;28;20041;-80
2022/03/02 06:12:17;;;;;;;15.38;14.48;;;;;;;-1.54;100.00;102113.34;5026171;28;20066;-80
2022/03/02 06:14:51;;;;;;;15.57;14.65;;;;;;;-1.54;100.00;102116.03;5030032;28;20045;-81
2022/03/02 06:17:26;;;;;;;15.98;14.98;;;;;;;-1.50;100.00;102126.41;5028494;28;20394;-81
2022/03/02 06:19:54;;;;;;;16.27;15.27;;;;;;;-1.48;100.00;102132.38;5024768;28;20057;-81
2022/03/02 06:22:28;;;;;;;15.73;14.77;;;;;;;-1.52;100.00;102125.72;5026356;28;20049;-81
2022/03/02 06:25:04;;;;;;;14.15;13.25;;;;;;;-1.56;100.00;102128.72;5023864;28;20050;-80
2022/03/02 06:27:38;;;;;;;15.98;14.98;;;;;;;-1.57;100.00;102110.19;5022618;28;20049;-81
2022/03/02 06:30:13;;;;;;;16.73;15.73;;;;;;;-1.51;100.00;102119.38;5029239;28;20080;-80
2022/03/02 06:32:46;;;;;;;16.15;15.15;;;;;;;-1.54;100.00;102112.53;5023407;28;20383;-81
2022/03/02 06:35:19;;;;;;;16.65;15.65;;;;;;;-1.51;100.00;102124.72;5023396;28;20069;-81
2022/03/02 06:37:52;;;;;;;17.90;16.80;;;;;;;-1.43;100.00;102125.56;5023708;28;20053;-80
2022/03/02 06:40:26;;;;;;;18.08;16.98;;;;;;;-1.39;100.00;102121.56;5035744;28;20065;-81
2022/03/02 06:43:03;;;;;;;17.45;16.45;;;;;;;-1.38;100.00;102120.56;5029405;28;20501;-80
2022/03/02 06:45:50;;;;;;;18.20;17.10;;;;;;;-1.41;100.00;102122.72;5022191;28;20053;-80
2022/03/02 06:48:26;;;;;;;17.88;16.80;;;;;;;-1.47;100.00;102104.69;5024915;28;20050;-81
2022/03/02 06:51:01;;;;;;;18.73;17.63;;;;;;;-1.32;100.00;102129.75;5024769;28;20050;-80
2022/03/02 06:53:36;;;;;;;18.35;17.25;;;;;;;-1.26;100.00;102128.25;5029914;28;20036;-80
2022/03/02 06:56:11;;;;;;;17.45;16.45;;;;;;;-1.32;100.00;102151.13;5018904;28;20100;-80
2022/03/02 06:58:51;;;;;;;17.13;16.13;;;;;;;-1.35;100.00;102156.78;5025697;28;20102;-81
2022/03/02 07:01:28;;;;;;;17.15;16.15;;;;;;;-1.50;100.00;102142.41;5028384;28;20056;-81
2022/03/02 07:04:02;;;;;;;19.15;18.05;;;;;;;-1.44;100.00;102152.44;5016330;28;20049;-81
2022/03/02 07:06:35;;;;;;;19.98;18.80;;;;;;;-1.46;100.00;102159.78;5021479;28;20262;-81
2022/03/02 07:09:03;;;;;;;19.27;18.17;;;;;;;-1.48;100.00;102157.25;5035672;28;20053;-81
2022/03/02 07:11:39;;;;;;;21.20;20.00;;;;;;;-1.47;100.00;102152.75;5027241;28;20050;-81
2022/03/02 07:14:15;;;;;;;21.33;20.13;;;;;;;-1.50;100.00;102164.59;5024442;28;20061;-81
2022/03/02 07:16:44;;;;;;;23.42;22.13;;;;;;;-1.47;100.00;102169.59;5032614;28;20053;-81
2022/03/02 07:19:17;;;;;;;22.33;21.02;;;;;;;-1.50;100.00;102175.28;5023815;28;20053;-81
2022/03/02 07:21:52;;;;;;;24.55;23.15;;;;;;;-1.43;100.00;102170.13;5029460;28;20049;-81
2022/03/02 07:24:30;;;;;;;23.42;22.13;;;;;;;-1.40;100.00;102167.13;5029272;28;20058;-81
2022/03/02 07:27:00;;;;;;;23.48;22.17;;;;;;;-1.31;100.00;102173.31;5031981;28;20053;-80
2022/03/02 07:29:28;;;;;;;25.27;23.88;;;;;;;-1.31;100.00;102184.84;5047040;28;20053;-80
2022/03/02 07:32:02;;;;;;;24.40;23.00;;;;;;;-1.28;100.00;102173.00;5031024;28;20484;-80
2022/03/02 07:34:42;;;;;;;27.13;25.63;;;;;;;-1.06;100.00;102171.53;5024182;28;20041;-80
2022/03/02 07:37:16;;;;;;;25.98;24.52;;;;;;;-1.00;100.00;102181.53;5022741;28;20049;-80
2022/03/02 07:39:49;;;;;;;26.48;24.98;;;;;;;-1.03;100.00;102171.19;5012602;28;20050;-80
2022/03/02 07:42:24;;;;;;;26.40;24.90;;;;;;;-0.93;100.00;102165.69;5018926;28;20683;-81
2022/03/02 07:44:58;;;;;;;23.58;22.25;;;;;;;-0.92;100.00;102162.84;5010101;28;20714;-80
2022/03/02 07:47:31;;;;;;;24.58;23.17;;;;;;;-0.90;100.00;102155.50;5012814;28;20069;-80
2022/03/02 07:50:05;;;;;;;23.60;22.30;;;;;;;-0.91;100.00;102156.50;5010207;28;20738;-80
2022/03/02 07:52:39;;;;;;;23.13;21.83;;;;;;;-0.90;100.00;102158.19;5016204;28;20037;-80
2022/03/02 07:55:13;;;;;;;24.40;23.00;;;;;;;-0.81;100.00;102166.19;5010513;28;20075;-80
2022/03/02 07:57:52;;;;;;;22.58;21.27;;;;;;;-0.87;100.00;102144.47;5010639;28;20063;-80
2022/03/02 08:00:28;;;;;;;22.92;21.63;;;;;;;-0.68;100.00;102161.16;5013349;28;20045;-80
2022/03/02 08:02:59;;;;;;;22.05;20.77;;;;;;;-0.56;100.00;102157.13;5002583;28;20054;-80
2022/03/02 08:05:33;;;;;;;23.55;22.25;;;;;;;-0.30;100.00;102156.09;5000374;28;20045;-80
2022/03/02 08:08:08;;;;;;;22.95;21.65;;;;;;;-0.33;100.00;102153.75;5006676;28;20060;-81
2022/03/02 08:10:42;;;;;;;21.38;20.17;;;;;;;-0.32;100.00;102158.09;5004390;28;20041;-81
2022/03/02 08:13:14;;;;;;;19.20;18.10;;;;;;;-0.31;100.00;102154.41;5008546;28;20140;-81
2022/03/02 08:15:47;;;;;;;20.00;18.83;;;;;;;-0.18;100.00;102153.88;5006131;28;20057;-80
2022/03/02 08:18:20;;;;;;;18.52;17.42;;;;;;;-0.13;100.00;102154.19;5013488;28;20060;-81
2022/03/02 08:20:56;;;;;;;20.90;19.70;;;;;;;-0.01;100.00;102155.50;5006067;28;20061;-82
2022/03/02 08:23:28;;;;;;;18.95;17.85;;;;;;;-0.01;100.00;102149.31;5006601;28;20064;-80
2022/03/02 08:26:03;;;;;;;16.08;15.07;;;;;;;0.24;100.00;102150.03;5004803;28;20041;-81
2022/03/02 08:28:35;;;;;;;15.30;14.40;;;;;;;0.17;100.00;102141.03;5006949;28;20061;-80
2022/03/02 08:31:09;;;;;;;15.40;14.50;;;;;;;0.21;100.00;102149.53;5001707;28;20053;-82
2022/03/02 08:33:42;;;;;;;14.15;13.25;;;;;;;0.24;100.00;102150.03;5010546;28;20061;-82
2022/03/02 08:36:16;;;;;;;12.38;11.57;;;;;;;0.29;100.00;102141.47;5004916;28;20414;-82
2022/03/02 08:38:51;;;;;;;9.35;8.75;;;;;;;0.48;100.00;102172.34;5007962;28;20049;-81
2022/03/02 08:41:24;;;;;;;8.63;8.02;;;;;;;1.05;100.00;102168.47;5004222;28;20049;-81
2022/03/02 08:43:59;;;;;;;6.85;6.35;;;;;;;1.07;100.00;102171.78;5006059;28;20049;-81
2022/03/02 08:46:33;;;;;;;5.80;5.40;;;;;;;0.93;100.00;102162.69;5009360;28;20052;-81
2022/03/02 08:49:06;;;;;;;6.47;5.97;;;;;;;0.92;100.00;102158.31;5004836;28;20064;-81
2022/03/02 08:51:41;;;;;;;6.57;6.07;;;;;;;1.04;100.00;102169.47;5005883;28;20064;-81
2022/03/02 08:54:18;;;;;;;5.70;5.30;;;;;;;1.03;100.00;102162.44;5005910;28;20041;-81
2022/03/02 08:56:47;;;;;;;5.78;5.38;;;;;;;1.08;100.00;102165.41;5004415;28;20057;-83
2022/03/02 08:59:25;;;;;;;4.20;3.90;;;;;;;1.08;100.00;102149.34;5003490;28;20049;-81
2022/03/02 09:01:58;;;;;;;3.33;3.13;;;;;;;1.15;100.00;102168.22;4998657;28;20045;-81
2022/03/02 09:04:35;;;;;;;4.05;3.75;;;;;;;1.10;100.00;102174.09;5004199;28;20045;-81
2022/03/02 09:07:08;;;;;;;3.15;2.95;;;;;;;1.23;100.00;102164.63;5002433;28;20067;-82
2022/03/02 09:09:41;;;;;;;3.35;3.15;;;;;;;1.36;100.00;102170.22;5011467;28;20053;-82
2022/03/02 09:12:10;;;;;;;3.05;2.85;;;;;;;1.31;100.00;102175.28;5004550;28;20053;-82
2022/03/02 09:14:47;;;;;;;2.90;2.70;;;;;;;1.47;100.00;102193.91;5007398;28;20045;-81
2022/03/02 09:17:24;;;;;;;;;;;;;;;1.47;100.00;102199.28;5006008;28;20061;-81
2022/03/02 09:19:58;;;;;;;3.20;3.00;;;;;;;1.54;100.00;102183.28;5006622;28;19937;-82
2022/03/02 09:22:31;;;;;;;3.00;2.80;;;;;;;1.48;100.00;102182.16;5001683;28;20307;-81
2022/03/02 09:24:59;;;;;;;3.42;3.22;;;;;;;1.62;100.00;102191.25;5010409;28;20045;-82
2022/03/02 09:27:33;;;;;;;2.53;2.42;;;;;;;1.64;100.00;102185.69;5006133;28;20057;-80
2022/03/02 09:30:10;;;;;;;2.70;2.50;;;;;;;1.62;100.00;102177.84;5004551;28;20053;-81
2022/03/02 09:32:41;;;;;;;2.80;2.60;;;;;;;1.83;100.00;102165.53;5003941;28;20061;-80
2022/03/02 09:35:15;;;;;;;3.00;2.80;;;;;;;1.78;100.00;102157.22;5004435;28;20659;-81
2022/03/02 09:37:49;;;;;;;2.85;2.65;;;;;;;1.65;100.00;102158.69;4998499;28;20053;-81
2022/03/02 09:40:24;;;;;;;3.03;2.83;;;;;;;1.69;100.00;102143.06;5002077;28;20054;-80
2022/03/02 09:42:59;;;;;;;3.10;2.90;;;;;;;1.66;100.00;102143.44;5005159;28;20049;-81
2022/03/02 09:45:30;;;;;;;2.97;2.78;;;;;;;1.75;100.00;102150.34;5012094;28;20046;-81
2022/03/02 09:48:00;;;;;;;2.83;2.63;;;;;;;1.87;100.00;102137.31;5009646;28;20053;-81
2022/03/02 09:50:37;;;;;;;2.47;2.38;;;;;;;2.02;100.00;102131.94;5009860;28;20053;-80
2022/03/02 09:53:14;;;;;;;2.83;2.63;;;;;;;2.13;100.00;102128.78;5010793;28;20683;-80
2022/03/02 09:55:47;;;;;;;2.50;2.40;;;;;;;2.14;100.00;102127.75;5009649;28;20296;-80
2022/03/02 09:58:21;;;;;;;2.30;2.20;;;;;;;2.45;100.00;102134.72;5012635;28;20056;-79
2022/03/02 10:00:58;;;;;;;2.15;2.05;;;;;;;2.41;100.00;102130.75;5014446;28;20050;-80
2022/03/02 10:03:37;;;;;;;2.00;1.90;;;;;;;2.64;100.00;102127.06;5015592;28;20879;-80
2022/03/02 10:06:12;;;;;;;1.80;1.70;;;;;;;2.70;100.00;102135.19;5012431;28;20766;-80
2022/03/02 10:08:50;;;;;;;1.80;1.70;;;;;;;2.88;100.00;102129.34;5009405;28;20064;-80
2022/03/02 10:11:21;;;;;;;1.35;1.33;;;;;;;2.84;100.00;102127.25;5011435;28;20068;-80
2022/03/02 10:13:58;;;;;;;1.30;1.30;;;;;;;3.00;100.00;102110.03;5009907;28;20088;-80
2022/03/02 10:16:41;;;;;;;1.17;1.17;;;;;;;3.05;100.00;102113.81;5009723;28;20053;-82
2022/03/02 10:19:22;;;;;;;1.00;1.00;;;;;;;2.84;100.00;102117.31;5008616;28;20057;-81
2022/03/02 10:22:03;;;;;;;1.08;1.08;;;;;;;3.05;100.00;102104.88;5011255;28;20049;-81
2022/03/02 10:24:45;;;;;;;0.90;0.90;;;;;;;2.90;100.00;102096.91;5013813;28;20568;-81
2022/03/02 10:27:34;;;;;;;0.90;0.90;;;;;;;2.97;100.00;102100.50;5014924;28;20077;-81
2022/03/02 10:30:09;;;;;;;0.90;0.90;;;;;;;3.36;100.00;102092.91;5013927;28;20044;-80
2022/03/02 10:32:44;;;;;;;0.80;0.80;;;;;;;3.42;100.00;102094.00;5012334;28;20054;-82
2022/03/02 10:35:22;;;;;;;0.70;0.70;;;;;;;3.43;100.00;102084.91;5015103;28;20060;-80
2022/03/02 10:38:04;;;;;;;0.60;0.60;;;;;;;3.64;100.00;102095.56;5014743;28;20048;-80
2022/03/02 10:40:33;;;;;;;0.60;0.60;;;;;;;3.62;100.00;102097.63;5010346;28;20608;-81
2022/03/02 10:43:05;;;;;;;0.50;0.50;;;;;;;3.71;100.00;102082.97;5011371;28;20056;-81
2022/03/02 10:45:44;;;;;;;0.50;0.50;;;;;;;3.72;100.00;102092.72;5015758;28;21308;-80
2022/03/02 10:48:28;;;;;;;0.60;0.60;;;;;;;3.74;100.00;102089.81;5014331;28;20065;-81
2022/03/02 10:51:04;;;;;;;0.55;0.55;;;;;;;3.97;100.00;102091.38;5019006;28;20060;-80
2022/03/02 10:53:40;;;;;;;0.50;0.50;;;;;;;3.91;100.00;102084.94;5016264;28;20053;-80
2022/03/02 10:56:15;;;;;;;0.50;0.50;;;;;;;3.98;100.00;102098.41;5014063;28;20054;-81
2022/03/02 10:58:51;;;;;;;0.30;0.30;;;;;;;4.13;95.35;102101.81;5017534;28;20050;-80
2022/03/02 11:01:24;;;;;;;0.45;0.45;;;;;;;4.03;100.00;102087.88;5013673;28;20057;-81
2022/03/02 11:03:58;;;;;;;0.30;0.30;;;;;;;4.08;96.07;102088.94;5015966;28;20064;-80
2022/03/02 11:06:32;;;;;;;0.30;0.30;;;;;;;4.09;100.00;102082.50;5019181;28;20053;-80
2022/03/02 11:09:06;;;;;;;0.45;0.45;;;;;;;3.97;100.00;102076.03;5014954;28;20073;-80
2022/03/02 11:11:41;;;;;;;0.40;0.40;;;;;;;3.96;100.00;102079.75;5015541;28;20053;-80
2022/03/02 11:14:14;;;;;;;0.38;0.38;;;;;;;4.25;100.00;102078.66;5013238;28;20061;-81
2022/03/02 11:16:49;;;;;;;0.35;0.35;;;;;;;4.21;100.00;102073.84;5014709;28;20046;-83
2022/03/02 11:19:26;;;;;;;0.30;0.30;;;;;;;4.08;98.81;102074.63;5015698;28;20057;-81
2022/03/02 11:21:59;;;;;;;0.30;0.30;;;;;;;4.26;100.00;102074.06;5016898;28;20069;-81
2022/03/02 11:24:32;;;;;;;0.30;0.30;;;;;;;4.32;100.00;102072.44;5014669;28;20045;-81
2022/03/02 11:27:06;;;;;;;0.32;0.32;;;;;;;4.41;93.50;102066.63;5017261;28;20057;-81
2022/03/02 11:29:35;;;;;;;0.30;0.30;;;;;;;4.19;88.75;102063.28;5014737;28;20383;-81
2022/03/02 11:32:12;;;;;;;0.40;0.40;;;;;;;4.20;86.70;102056.03;5014181;28;20065;-81
2022/03/02 11:34:48;;;;;;;0.32;0.32;;;;;;;4.25;87.86;102064.31;5017715;28;20075;-81
2022/03/02 11:37:23;;;;;;;0.30;0.30;;;;;;;4.29;98.02;102062.06;5015184;28;20062;-81
2022/03/02 11:39:51;;;;;;;0.30;0.30;;;;;;;4.65;84.26;102061.69;5012582;28;20057;-81
2022/03/02 11:42:29;;;;;;;0.30;0.30;;;;;;;4.97;91.61;102053.81;5012913;28;20714;-81
2022/03/02 11:45:03;;;;;;;0.30;0.30;;;;;;;4.91;74.24;102046.56;5013904;28;20068;-81